sensor_id;sensor_type;location;lat;lon;timestamp;temperature;humidity
2002;DHT22;1003;48.002;7.788;2023-02-22T00:01:31;5.90;99.90
2002;DHT22;1003;48.002;7.788;2023-02-22T00:04:01;5.80;99.90
2002;DHT22;1003;48.002;7.788;2023-02-22T00:06:29;5.70;99.90
2002;DHT22;1003;48.002;7.788;2023-02-22T00:08:58;5.60;99.90
2002;DHT22;1003;48.002;7.788;2023-02-22T00:11:26;5.50;99.90
2002;DHT22;1003;48.002;7.788;2023-02-22T00:13:55;5.50;99.90
2002;DHT22;1003;48.002;7.788;2023-02-22T00:16:23;5.30;99.90
2002;DHT22;1003;48.002;7.788;2023-02-22T00:18:52;5.00;99.90
2002;DHT22;1003;48.002;7.788;2023-02-22T00:21:19;4.70;99.90
2002;DHT22;1003;48.002;7.788;2023-02-22T00:23:48;4.30;99.90
2002;DHT22;1003;48.002;7.788;2023-02-22T00:26:18;4.10;99.90
2002;DHT22;1003;48.002;7.788;2023-02-22T00:28:49;4.00;99.90
2002;DHT22;1003;48.002;7.788;2023-02-22T00:31:18;4.00;99.90
2002;DHT22;1003;48.002;7.788;2023-02-22T00:33:46;4.00;99.90
2002;DHT22;1003;48.002;7.788;2023-02-22T00:36:13;4.20;99.90
2002;DHT22;1003;48.002;7.788;2023-02-22T00:38:41;4.20;99.90
2002;DHT22;1003;48.002;7.788;2023-02-22T00:41:08;4.30;99.90
2002;DHT22;1003;48.002;7.788;2023-02-22T00:43:37;4.30;99.90
2002;DHT22;1003;48.002;7.788;2023-02-22T00:46:04;4.40;99.90
2002;DHT22;1003;48.002;7.788;2023-02-22T00:48:31;4.40;99.90
2002;DHT22;1003;48.002;7.788;2023-02-22T00:50:58;4.50;99.90
2002;DHT22;1003;48.002;7.788;2023-02-22T00:53:25;4.50;99.90
2002;DHT22;1003;48.002;7.788;2023-02-22T00:55:52;4.40;99.90
2002;DHT22;1003;48.002;7.788;2023-02-22T00:58:20;4.50;99.90
2002;DHT22;1003;48.002;7.788;2023-02-22T01:00:50;4.40;99.90
2002;DHT22;1003;48.002;7.788;2023-02-22T01:03:19;4.20;99.90
2002;DHT22;1003;48.002;7.788;2023-02-22T01:05:46;4.10;99.90
2002;DHT22;1003;48.002;7.788;2023-02-22T01:08:15;3.90;99.90
2002;DHT22;1003;48.002;7.788;2023-02-22T01:10:43;3.80;99.90
2002;DHT22;1003;48.002;7.788;2023-02-22T01:13:11;3.70;99.90
2002;DHT22;1003;48.002;7.788;2023-02-22T01:15:40;3.70;99.90
2002;DHT22;1003;48.002;7.788;2023-02-22T01:18:11;3.70;99.90
2002;DHT22;1003;48.002;7.788;2023-02-22T01:20:41;3.60;99.90
2002;DHT22;1003;48.002;7.788;2023-02-22T01:23:13;3.60;99.90
2002;DHT22;1003;48.002;7.788;2023-02-22T01:25:42;3.60;99.90
2002;DHT22;1003;48.002;7.788;2023-02-22T01:28:09;3.60;99.90
2002;DHT22;1003;48.002;7.788;2023-02-22T01:30:38;3.50;99.90
2002;DHT22;1003;48.002;7.788;2023-02-22T01:33:06;3.50;99.90
2002;DHT22;1003;48.002;7.788;2023-02-22T01:35:36;3.40;99.90
2002;DHT22;1003;48.002;7.788;2023-02-22T01:38:05;3.40;99.90
2002;DHT22;1003;48.002;7.788;2023-02-22T01:40:34;3.30;99.90
2002;DHT22;1003;48.002;7.788;2023-02-22T01:43:04;3.20;99.90
2002;DHT22;1003;48.002;7.788;2023-02-22T01:45:53;3.10;99.90
2002;DHT22;1003;48.002;7.788;2023-02-22T01:48:27;3.10;99.90
2002;DHT22;1003;48.002;7.788;2023-02-22T01:51:04;3.10;99.90
2002;DHT22;1003;48.002;7.788;2023-02-22T01:53:40;3.10;99.90
2002;DHT22;1003;48.002;7.788;2023-02-22T01:56:13;3.10;99.90
2002;DHT22;1003;48.002;7.788;2023-02-22T01:58:44;3.20;99.90
2002;DHT22;1003;48.002;7.788;2023-02-22T02:01:15;3.20;99.90
2002;DHT22;1003;48.002;7.788;2023-02-22T02:03:45;3.10;99.90
2002;DHT22;1003;48.002;7.788;2023-02-22T02:06:15;3.00;99.90
2002;DHT22;1003;48.002;7.788;2023-02-22T02:08:49;2.90;99.90
2002;DHT22;1003;48.002;7.788;2023-02-22T02:11:24;2.80;99.90
2002;DHT22;1003;48.002;7.788;2023-02-22T02:13:54;2.70;99.90
2002;DHT22;1003;48.002;7.788;2023-02-22T02:16:25;2.60;99.90
2002;DHT22;1003;48.002;7.788;2023-02-22T02:18:58;2.50;99.90
2002;DHT22;1003;48.002;7.788;2023-02-22T02:21:49;2.40;99.90
2002;DHT22;1003;48.002;7.788;2023-02-22T02:25:08;2.30;99.90
2002;DHT22;1003;48.002;7.788;2023-02-22T02:31:54;2.10;99.90
2002;DHT22;1003;48.002;7.788;2023-02-22T02:34:57;2.20;99.90
2002;DHT22;1003;48.002;7.788;2023-02-22T02:37:34;2.20;99.90
2002;DHT22;1003;48.002;7.788;2023-02-22T02:40:14;2.20;99.90
2002;DHT22;1003;48.002;7.788;2023-02-22T02:42:52;2.20;99.90
2002;DHT22;1003;48.002;7.788;2023-02-22T02:45:28;2.20;99.90
2002;DHT22;1003;48.002;7.788;2023-02-22T02:48:04;2.20;99.90
2002;DHT22;1003;48.002;7.788;2023-02-22T02:50:37;2.10;99.90
2002;DHT22;1003;48.002;7.788;2023-02-22T02:53:09;2.10;99.90
2002;DHT22;1003;48.002;7.788;2023-02-22T02:55:38;2.00;99.90
2002;DHT22;1003;48.002;7.788;2023-02-22T02:58:07;2.00;99.90
2002;DHT22;1003;48.002;7.788;2023-02-22T03:00:37;2.00;99.90
2002;DHT22;1003;48.002;7.788;2023-02-22T03:03:40;1.80;99.90
2002;DHT22;1003;48.002;7.788;2023-02-22T03:06:24;1.70;99.90
2002;DHT22;1003;48.002;7.788;2023-02-22T03:09:10;1.60;99.90
2002;DHT22;1003;48.002;7.788;2023-02-22T03:11:50;1.50;99.90
2002;DHT22;1003;48.002;7.788;2023-02-22T03:14:32;1.50;99.90
2002;DHT22;1003;48.002;7.788;2023-02-22T03:17:15;1.60;99.90
2002;DHT22;1003;48.002;7.788;2023-02-22T03:19:57;1.60;99.90
2002;DHT22;1003;48.002;7.788;2023-02-22T03:22:29;1.70;99.90
2002;DHT22;1003;48.002;7.788;2023-02-22T03:25:06;1.70;99.90
2002;DHT22;1003;48.002;7.788;2023-02-22T03:27:40;1.70;99.90
2002;DHT22;1003;48.002;7.788;2023-02-22T03:30:16;1.70;99.90
2002;DHT22;1003;48.002;7.788;2023-02-22T03:32:51;1.80;99.90
2002;DHT22;1003;48.002;7.788;2023-02-22T03:35:30;1.80;99.90
2002;DHT22;1003;48.002;7.788;2023-02-22T03:38:03;1.90;99.90
2002;DHT22;1003;48.002;7.788;2023-02-22T03:40:38;1.90;99.90
2002;DHT22;1003;48.002;7.788;2023-02-22T03:43:14;1.80;99.90
2002;DHT22;1003;48.002;7.788;2023-02-22T03:45:46;1.60;99.90
2002;DHT22;1003;48.002;7.788;2023-02-22T03:48:20;1.30;99.90
2002;DHT22;1003;48.002;7.788;2023-02-22T03:50:54;1.20;99.90
2002;DHT22;1003;48.002;7.788;2023-02-22T03:53:23;1.00;99.90
2002;DHT22;1003;48.002;7.788;2023-02-22T03:55:51;0.90;99.90
2002;DHT22;1003;48.002;7.788;2023-02-22T03:58:23;0.90;99.90
2002;DHT22;1003;48.002;7.788;2023-02-22T04:00:55;0.80;99.90
2002;DHT22;1003;48.002;7.788;2023-02-22T04:03:23;0.90;99.90
2002;DHT22;1003;48.002;7.788;2023-02-22T04:05:50;1.10;99.90
2002;DHT22;1003;48.002;7.788;2023-02-22T04:08:18;1.20;99.90
2002;DHT22;1003;48.002;7.788;2023-02-22T04:10:45;1.30;99.90
2002;DHT22;1003;48.002;7.788;2023-02-22T04:13:12;1.40;99.90
2002;DHT22;1003;48.002;7.788;2023-02-22T04:15:40;1.40;99.90
2002;DHT22;1003;48.002;7.788;2023-02-22T04:18:07;1.40;99.90
2002;DHT22;1003;48.002;7.788;2023-02-22T04:20:34;1.40;99.90
2002;DHT22;1003;48.002;7.788;2023-02-22T04:23:01;1.30;99.90
2002;DHT22;1003;48.002;7.788;2023-02-22T04:25:29;1.30;99.90
2002;DHT22;1003;48.002;7.788;2023-02-22T04:27:56;1.30;99.90
2002;DHT22;1003;48.002;7.788;2023-02-22T04:30:23;1.30;99.90
2002;DHT22;1003;48.002;7.788;2023-02-22T04:32:50;1.30;99.90
2002;DHT22;1003;48.002;7.788;2023-02-22T04:35:17;1.50;99.90
2002;DHT22;1003;48.002;7.788;2023-02-22T04:37:44;1.60;99.90
2002;DHT22;1003;48.002;7.788;2023-02-22T04:40:11;1.60;99.90
2002;DHT22;1003;48.002;7.788;2023-02-22T04:42:40;1.70;99.90
2002;DHT22;1003;48.002;7.788;2023-02-22T04:45:08;1.70;99.90
2002;DHT22;1003;48.002;7.788;2023-02-22T04:47:36;1.70;99.90
2002;DHT22;1003;48.002;7.788;2023-02-22T04:50:04;1.60;99.90
2002;DHT22;1003;48.002;7.788;2023-02-22T04:52:32;1.50;99.90
2002;DHT22;1003;48.002;7.788;2023-02-22T04:54:59;1.40;99.90
2002;DHT22;1003;48.002;7.788;2023-02-22T04:57:26;1.30;99.90
2002;DHT22;1003;48.002;7.788;2023-02-22T04:59:55;1.10;99.90
2002;DHT22;1003;48.002;7.788;2023-02-22T05:02:22;1.10;99.90
2002;DHT22;1003;48.002;7.788;2023-02-22T05:04:50;1.00;99.90
2002;DHT22;1003;48.002;7.788;2023-02-22T05:07:17;0.80;99.90
2002;DHT22;1003;48.002;7.788;2023-02-22T05:09:44;0.70;99.90
2002;DHT22;1003;48.002;7.788;2023-02-22T05:12:11;0.60;99.90
2002;DHT22;1003;48.002;7.788;2023-02-22T05:14:38;0.70;99.90
2002;DHT22;1003;48.002;7.788;2023-02-22T05:17:07;0.80;99.90
2002;DHT22;1003;48.002;7.788;2023-02-22T05:19:34;0.90;99.90
2002;DHT22;1003;48.002;7.788;2023-02-22T05:22:02;1.10;99.90
2002;DHT22;1003;48.002;7.788;2023-02-22T05:24:31;1.10;99.90
2002;DHT22;1003;48.002;7.788;2023-02-22T05:26:58;1.20;99.90
2002;DHT22;1003;48.002;7.788;2023-02-22T05:29:25;1.20;99.90
2002;DHT22;1003;48.002;7.788;2023-02-22T05:31:52;1.10;99.90
2002;DHT22;1003;48.002;7.788;2023-02-22T05:34:20;1.00;99.90
2002;DHT22;1003;48.002;7.788;2023-02-22T05:36:48;0.80;99.90
2002;DHT22;1003;48.002;7.788;2023-02-22T05:39:15;0.70;99.90
2002;DHT22;1003;48.002;7.788;2023-02-22T05:41:42;0.60;99.90
2002;DHT22;1003;48.002;7.788;2023-02-22T05:44:09;0.50;99.90
2002;DHT22;1003;48.002;7.788;2023-02-22T05:46:36;0.40;99.90
2002;DHT22;1003;48.002;7.788;2023-02-22T05:49:03;0.40;99.90
2002;DHT22;1003;48.002;7.788;2023-02-22T05:51:32;0.40;99.90
2002;DHT22;1003;48.002;7.788;2023-02-22T05:53:59;0.40;99.90
2002;DHT22;1003;48.002;7.788;2023-02-22T05:56:27;0.50;99.90
2002;DHT22;1003;48.002;7.788;2023-02-22T05:58:55;0.50;99.90
2002;DHT22;1003;48.002;7.788;2023-02-22T06:01:23;0.60;99.90
2002;DHT22;1003;48.002;7.788;2023-02-22T06:03:51;0.60;99.90
2002;DHT22;1003;48.002;7.788;2023-02-22T06:06:19;0.50;99.90
2002;DHT22;1003;48.002;7.788;2023-02-22T06:08:48;0.50;99.90
2002;DHT22;1003;48.002;7.788;2023-02-22T06:11:15;0.50;99.90
2002;DHT22;1003;48.002;7.788;2023-02-22T06:13:48;0.50;99.90
2002;DHT22;1003;48.002;7.788;2023-02-22T06:16:16;0.60;99.90
2002;DHT22;1003;48.002;7.788;2023-02-22T06:18:43;0.60;99.90
2002;DHT22;1003;48.002;7.788;2023-02-22T06:21:10;0.80;99.90
2002;DHT22;1003;48.002;7.788;2023-02-22T06:23:37;0.80;99.90
2002;DHT22;1003;48.002;7.788;2023-02-22T06:26:05;0.90;99.90
2002;DHT22;1003;48.002;7.788;2023-02-22T06:28:32;1.00;99.90
2002;DHT22;1003;48.002;7.788;2023-02-22T06:30:59;1.10;99.90
2002;DHT22;1003;48.002;7.788;2023-02-22T06:33:26;1.20;99.90
2002;DHT22;1003;48.002;7.788;2023-02-22T06:35:53;1.30;99.90
2002;DHT22;1003;48.002;7.788;2023-02-22T06:38:21;1.30;99.90
2002;DHT22;1003;48.002;7.788;2023-02-22T06:40:49;1.30;99.90
2002;DHT22;1003;48.002;7.788;2023-02-22T06:43:17;1.40;99.90
2002;DHT22;1003;48.002;7.788;2023-02-22T06:45:44;1.40;99.90
2002;DHT22;1003;48.002;7.788;2023-02-22T06:48:12;1.50;99.90
2002;DHT22;1003;48.002;7.788;2023-02-22T06:50:39;1.60;99.90
2002;DHT22;1003;48.002;7.788;2023-02-22T06:53:06;1.70;99.90
2002;DHT22;1003;48.002;7.788;2023-02-22T06:55:34;1.80;99.90
2002;DHT22;1003;48.002;7.788;2023-02-22T06:58:03;2.00;99.90
2002;DHT22;1003;48.002;7.788;2023-02-22T07:00:32;2.20;99.90
2002;DHT22;1003;48.002;7.788;2023-02-22T07:03:00;2.40;99.90
2002;DHT22;1003;48.002;7.788;2023-02-22T07:05:29;2.50;99.90
2002;DHT22;1003;48.002;7.788;2023-02-22T07:08:02;2.60;99.90
2002;DHT22;1003;48.002;7.788;2023-02-22T07:10:32;2.80;99.90
2002;DHT22;1003;48.002;7.788;2023-02-22T07:13:01;2.90;99.90
2002;DHT22;1003;48.002;7.788;2023-02-22T07:15:30;3.00;99.90
2002;DHT22;1003;48.002;7.788;2023-02-22T07:18:00;3.20;99.90
2002;DHT22;1003;48.002;7.788;2023-02-22T07:20:29;3.30;99.90
2002;DHT22;1003;48.002;7.788;2023-02-22T07:22:57;3.40;99.90
2002;DHT22;1003;48.002;7.788;2023-02-22T07:25:25;3.60;99.90
2002;DHT22;1003;48.002;7.788;2023-02-22T07:27:52;3.80;99.90
2002;DHT22;1003;48.002;7.788;2023-02-22T07:30:21;4.10;99.90
2002;DHT22;1003;48.002;7.788;2023-02-22T07:32:53;4.40;99.90
2002;DHT22;1003;48.002;7.788;2023-02-22T07:35:22;4.80;99.90
2002;DHT22;1003;48.002;7.788;2023-02-22T07:37:51;5.00;99.90
2002;DHT22;1003;48.002;7.788;2023-02-22T07:40:18;5.20;99.90
2002;DHT22;1003;48.002;7.788;2023-02-22T07:42:53;5.40;99.90
2002;DHT22;1003;48.002;7.788;2023-02-22T07:45:25;5.60;99.90
2002;DHT22;1003;48.002;7.788;2023-02-22T07:47:55;5.90;99.90
2002;DHT22;1003;48.002;7.788;2023-02-22T07:50:24;6.10;99.90
2002;DHT22;1003;48.002;7.788;2023-02-22T07:52:54;6.40;99.90
2002;DHT22;1003;48.002;7.788;2023-02-22T07:55:23;6.60;99.90
2002;DHT22;1003;48.002;7.788;2023-02-22T07:57:53;6.90;99.90
2002;DHT22;1003;48.002;7.788;2023-02-22T08:00:24;7.10;99.90
2002;DHT22;1003;48.002;7.788;2023-02-22T08:02:55;7.40;99.90
2002;DHT22;1003;48.002;7.788;2023-02-22T08:05:24;7.70;99.90
2002;DHT22;1003;48.002;7.788;2023-02-22T08:07:56;8.10;99.90
2002;DHT22;1003;48.002;7.788;2023-02-22T08:10:24;8.20;99.90
2002;DHT22;1003;48.002;7.788;2023-02-22T08:12:52;8.40;99.90
2002;DHT22;1003;48.002;7.788;2023-02-22T08:15:22;8.40;99.90
2002;DHT22;1003;48.002;7.788;2023-02-22T08:17:51;8.50;99.90
2002;DHT22;1003;48.002;7.788;2023-02-22T08:20:20;8.50;99.90
2002;DHT22;1003;48.002;7.788;2023-02-22T08:22:48;8.70;99.90
2002;DHT22;1003;48.002;7.788;2023-02-22T08:25:18;8.80;99.90
2002;DHT22;1003;48.002;7.788;2023-02-22T08:27:46;8.90;99.90
2002;DHT22;1003;48.002;7.788;2023-02-22T08:30:15;9.10;99.90
2002;DHT22;1003;48.002;7.788;2023-02-22T08:32:45;9.20;99.90
2002;DHT22;1003;48.002;7.788;2023-02-22T08:35:14;9.30;99.90
2002;DHT22;1003;48.002;7.788;2023-02-22T08:37:44;9.40;99.90
2002;DHT22;1003;48.002;7.788;2023-02-22T08:40:12;9.50;99.90
2002;DHT22;1003;48.002;7.788;2023-02-22T08:42:41;9.80;99.90
2002;DHT22;1003;48.002;7.788;2023-02-22T08:45:09;9.90;99.90
2002;DHT22;1003;48.002;7.788;2023-02-22T08:47:37;10.00;99.90
2002;DHT22;1003;48.002;7.788;2023-02-22T08:50:05;9.90;99.90
2002;DHT22;1003;48.002;7.788;2023-02-22T08:52:33;9.90;99.90
2002;DHT22;1003;48.002;7.788;2023-02-22T08:55:02;9.90;99.90
2002;DHT22;1003;48.002;7.788;2023-02-22T08:57:29;10.00;99.90
2002;DHT22;1003;48.002;7.788;2023-02-22T08:59:56;10.10;99.90
2002;DHT22;1003;48.002;7.788;2023-02-22T09:02:23;10.30;99.90
2002;DHT22;1003;48.002;7.788;2023-02-22T09:04:50;10.30;99.90
2002;DHT22;1003;48.002;7.788;2023-02-22T09:07:17;10.30;99.90
2002;DHT22;1003;48.002;7.788;2023-02-22T09:09:44;10.50;99.90
2002;DHT22;1003;48.002;7.788;2023-02-22T09:12:13;10.80;99.90
2002;DHT22;1003;48.002;7.788;2023-02-22T09:14:40;10.70;99.90
2002;DHT22;1003;48.002;7.788;2023-02-22T09:17:07;10.90;99.90
2002;DHT22;1003;48.002;7.788;2023-02-22T09:19:34;11.20;99.90
2002;DHT22;1003;48.002;7.788;2023-02-22T09:22:01;11.40;99.90
2002;DHT22;1003;48.002;7.788;2023-02-22T09:24:28;11.80;99.90
2002;DHT22;1003;48.002;7.788;2023-02-22T09:26:55;12.00;99.90
2002;DHT22;1003;48.002;7.788;2023-02-22T09:29:26;12.30;99.90
2002;DHT22;1003;48.002;7.788;2023-02-22T09:31:54;12.40;99.90
2002;DHT22;1003;48.002;7.788;2023-02-22T09:34:23;12.60;99.90
2002;DHT22;1003;48.002;7.788;2023-02-22T09:36:54;12.70;99.90
2002;DHT22;1003;48.002;7.788;2023-02-22T09:39:23;12.80;99.90
2002;DHT22;1003;48.002;7.788;2023-02-22T09:41:56;13.00;99.90
2002;DHT22;1003;48.002;7.788;2023-02-22T09:44:35;13.00;99.90
2002;DHT22;1003;48.002;7.788;2023-02-22T09:47:13;13.30;99.90
2002;DHT22;1003;48.002;7.788;2023-02-22T09:49:52;13.40;99.90
2002;DHT22;1003;48.002;7.788;2023-02-22T09:52:26;13.60;99.90
2002;DHT22;1003;48.002;7.788;2023-02-22T09:55:05;13.70;99.90
2002;DHT22;1003;48.002;7.788;2023-02-22T09:57:38;13.60;99.90
2002;DHT22;1003;48.002;7.788;2023-02-22T10:00:16;13.40;99.90
2002;DHT22;1003;48.002;7.788;2023-02-22T10:02:49;13.40;99.90
2002;DHT22;1003;48.002;7.788;2023-02-22T10:05:23;13.50;99.90
2002;DHT22;1003;48.002;7.788;2023-02-22T10:07:59;13.50;99.90
2002;DHT22;1003;48.002;7.788;2023-02-22T10:10:32;13.50;99.90
2002;DHT22;1003;48.002;7.788;2023-02-22T10:13:09;13.40;99.90
2002;DHT22;1003;48.002;7.788;2023-02-22T10:15:49;13.20;99.90
2002;DHT22;1003;48.002;7.788;2023-02-22T10:18:44;13.50;99.90
2002;DHT22;1003;48.002;7.788;2023-02-22T10:21:38;13.60;99.90
2002;DHT22;1003;48.002;7.788;2023-02-22T10:24:23;13.90;99.90
2002;DHT22;1003;48.002;7.788;2023-02-22T10:27:05;13.90;99.90
2002;DHT22;1003;48.002;7.788;2023-02-22T10:29:37;14.00;99.90
2002;DHT22;1003;48.002;7.788;2023-02-22T10:32:14;14.10;99.90
2002;DHT22;1003;48.002;7.788;2023-02-22T10:34:47;14.20;99.90
2002;DHT22;1003;48.002;7.788;2023-02-22T10:37:23;14.40;99.90
2002;DHT22;1003;48.002;7.788;2023-02-22T10:39:57;14.30;99.90
2002;DHT22;1003;48.002;7.788;2023-02-22T10:42:30;14.10;99.90
2002;DHT22;1003;48.002;7.788;2023-02-22T10:44:57;14.20;99.90
2002;DHT22;1003;48.002;7.788;2023-02-22T10:47:26;14.30;99.90
2002;DHT22;1003;48.002;7.788;2023-02-22T10:49:56;14.30;99.90
2002;DHT22;1003;48.002;7.788;2023-02-22T10:52:27;14.40;99.90
2002;DHT22;1003;48.002;7.788;2023-02-22T10:54:57;14.60;99.90
2002;DHT22;1003;48.002;7.788;2023-02-22T10:57:28;14.70;99.90
2002;DHT22;1003;48.002;7.788;2023-02-22T11:00:18;14.70;99.90
2002;DHT22;1003;48.002;7.788;2023-02-22T11:02:53;14.90;99.90
2002;DHT22;1003;48.002;7.788;2023-02-22T11:05:27;15.10;99.90
2002;DHT22;1003;48.002;7.788;2023-02-22T11:08:17;15.20;99.90
2002;DHT22;1003;48.002;7.788;2023-02-22T11:10:52;15.30;99.90
2002;DHT22;1003;48.002;7.788;2023-02-22T11:13:27;15.40;99.90
2002;DHT22;1003;48.002;7.788;2023-02-22T11:15:59;15.10;99.90
2002;DHT22;1003;48.002;7.788;2023-02-22T11:18:32;15.10;99.90
2002;DHT22;1003;48.002;7.788;2023-02-22T11:21:03;15.10;99.90
2002;DHT22;1003;48.002;7.788;2023-02-22T11:23:33;15.00;99.90
2002;DHT22;1003;48.002;7.788;2023-02-22T11:26:05;14.80;99.90
2002;DHT22;1003;48.002;7.788;2023-02-22T11:28:35;14.80;99.90
2002;DHT22;1003;48.002;7.788;2023-02-22T11:31:15;15.00;99.90
2002;DHT22;1003;48.002;7.788;2023-02-22T11:33:52;15.10;99.90
2002;DHT22;1003;48.002;7.788;2023-02-22T11:36:32;15.00;99.90
2002;DHT22;1003;48.002;7.788;2023-02-22T11:39:04;15.10;99.90
2002;DHT22;1003;48.002;7.788;2023-02-22T11:41:35;15.20;99.90
2002;DHT22;1003;48.002;7.788;2023-02-22T11:44:21;15.10;99.90
2002;DHT22;1003;48.002;7.788;2023-02-22T11:46:51;15.20;99.90
2002;DHT22;1003;48.002;7.788;2023-02-22T11:49:23;15.30;99.90
2002;DHT22;1003;48.002;7.788;2023-02-22T11:52:08;15.40;99.90
2002;DHT22;1003;48.002;7.788;2023-02-22T11:55:12;15.50;99.90
2002;DHT22;1003;48.002;7.788;2023-02-22T11:57:54;15.50;99.90
2002;DHT22;1003;48.002;7.788;2023-02-22T12:00:41;15.50;99.90
2002;DHT22;1003;48.002;7.788;2023-02-22T12:03:39;15.50;99.90
2002;DHT22;1003;48.002;7.788;2023-02-22T12:06:33;15.40;99.90
2002;DHT22;1003;48.002;7.788;2023-02-22T12:09:14;15.40;99.90
2002;DHT22;1003;48.002;7.788;2023-02-22T12:11:55;15.40;99.90
2002;DHT22;1003;48.002;7.788;2023-02-22T12:14:33;15.30;99.90
2002;DHT22;1003;48.002;7.788;2023-02-22T12:17:22;15.40;99.90
2002;DHT22;1003;48.002;7.788;2023-02-22T12:20:03;15.50;99.90
2002;DHT22;1003;48.002;7.788;2023-02-22T12:22:46;15.60;99.90
2002;DHT22;1003;48.002;7.788;2023-02-22T12:25:25;15.70;99.90
2002;DHT22;1003;48.002;7.788;2023-02-22T12:27:57;15.80;99.90
2002;DHT22;1003;48.002;7.788;2023-02-22T12:30:30;15.80;99.90
2002;DHT22;1003;48.002;7.788;2023-02-22T12:33:08;15.70;99.90
2002;DHT22;1003;48.002;7.788;2023-02-22T12:35:42;15.40;99.90
2002;DHT22;1003;48.002;7.788;2023-02-22T12:38:19;15.30;99.90
2002;DHT22;1003;48.002;7.788;2023-02-22T12:40:58;15.20;99.90
2002;DHT22;1003;48.002;7.788;2023-02-22T12:43:33;15.30;99.90
2002;DHT22;1003;48.002;7.788;2023-02-22T12:46:10;15.20;99.90
2002;DHT22;1003;48.002;7.788;2023-02-22T12:48:46;15.30;99.90
2002;DHT22;1003;48.002;7.788;2023-02-22T12:51:26;15.30;99.90
2002;DHT22;1003;48.002;7.788;2023-02-22T12:54:09;15.30;99.90
2002;DHT22;1003;48.002;7.788;2023-02-22T12:56:46;15.50;99.90
2002;DHT22;1003;48.002;7.788;2023-02-22T12:59:24;15.30;99.90
2002;DHT22;1003;48.002;7.788;2023-02-22T13:02:00;15.30;99.90
2002;DHT22;1003;48.002;7.788;2023-02-22T13:04:38;15.30;99.90
2002;DHT22;1003;48.002;7.788;2023-02-22T13:07:13;15.50;99.90
2002;DHT22;1003;48.002;7.788;2023-02-22T13:13:10;15.20;99.90
2002;DHT22;1003;48.002;7.788;2023-02-22T13:15:46;15.30;99.90
2002;DHT22;1003;48.002;7.788;2023-02-22T13:18:22;15.50;99.90
2002;DHT22;1003;48.002;7.788;2023-02-22T13:21:00;15.40;99.90
2002;DHT22;1003;48.002;7.788;2023-02-22T13:23:39;15.50;99.90
2002;DHT22;1003;48.002;7.788;2023-02-22T13:26:17;15.30;99.90
2002;DHT22;1003;48.002;7.788;2023-02-22T13:28:55;15.40;99.90
2002;DHT22;1003;48.002;7.788;2023-02-22T13:31:54;15.20;99.90
2002;DHT22;1003;48.002;7.788;2023-02-22T13:34:48;15.40;99.90
2002;DHT22;1003;48.002;7.788;2023-02-22T13:37:45;15.30;99.90
2002;DHT22;1003;48.002;7.788;2023-02-22T13:41:06;15.30;99.90
2002;DHT22;1003;48.002;7.788;2023-02-22T13:44:00;15.30;99.90
2002;DHT22;1003;48.002;7.788;2023-02-22T13:47:10;15.10;99.90
2002;DHT22;1003;48.002;7.788;2023-02-22T13:50:19;15.20;99.90
2002;DHT22;1003;48.002;7.788;2023-02-22T13:52:59;15.40;99.90
2002;DHT22;1003;48.002;7.788;2023-02-22T13:55:33;15.30;99.90
2002;DHT22;1003;48.002;7.788;2023-02-22T13:58:04;15.20;99.90
2002;DHT22;1003;48.002;7.788;2023-02-22T14:00:46;14.90;99.90
2002;DHT22;1003;48.002;7.788;2023-02-22T14:03:36;15.10;99.90
2002;DHT22;1003;48.002;7.788;2023-02-22T14:06:08;15.10;99.90
2002;DHT22;1003;48.002;7.788;2023-02-22T14:08:57;15.00;99.90
2002;DHT22;1003;48.002;7.788;2023-02-22T14:11:49;14.90;99.90
2002;DHT22;1003;48.002;7.788;2023-02-22T14:14:22;14.90;99.90
2002;DHT22;1003;48.002;7.788;2023-02-22T14:17:21;14.90;99.90
2002;DHT22;1003;48.002;7.788;2023-02-22T14:20:17;14.80;99.90
2002;DHT22;1003;48.002;7.788;2023-02-22T14:22:55;14.80;99.90
2002;DHT22;1003;48.002;7.788;2023-02-22T14:25:39;14.80;99.90
2002;DHT22;1003;48.002;7.788;2023-02-22T14:31:07;14.60;99.90
2002;DHT22;1003;48.002;7.788;2023-02-22T14:34:05;14.70;99.90
2002;DHT22;1003;48.002;7.788;2023-02-22T14:36:40;14.70;99.90
2002;DHT22;1003;48.002;7.788;2023-02-22T14:39:19;14.60;99.90
2002;DHT22;1003;48.002;7.788;2023-02-22T14:41:56;14.70;99.90
2002;DHT22;1003;48.002;7.788;2023-02-22T14:44:29;14.70;99.90
2002;DHT22;1003;48.002;7.788;2023-02-22T14:47:03;14.50;99.90
2002;DHT22;1003;48.002;7.788;2023-02-22T14:49:35;14.50;99.90
2002;DHT22;1003;48.002;7.788;2023-02-22T14:52:16;14.50;99.90
2002;DHT22;1003;48.002;7.788;2023-02-22T14:54:59;14.40;99.90
2002;DHT22;1003;48.002;7.788;2023-02-22T14:57:44;14.40;99.90
2002;DHT22;1003;48.002;7.788;2023-02-22T15:00:20;14.30;99.90
2002;DHT22;1003;48.002;7.788;2023-02-22T15:02:56;14.30;99.90
2002;DHT22;1003;48.002;7.788;2023-02-22T15:05:27;14.20;99.90
2002;DHT22;1003;48.002;7.788;2023-02-22T15:07:58;14.00;99.90
2002;DHT22;1003;48.002;7.788;2023-02-22T15:10:29;14.10;99.90
2002;DHT22;1003;48.002;7.788;2023-02-22T15:13:00;14.10;99.90
2002;DHT22;1003;48.002;7.788;2023-02-22T15:15:37;14.10;99.90
2002;DHT22;1003;48.002;7.788;2023-02-22T15:18:18;13.90;99.90
2002;DHT22;1003;48.002;7.788;2023-02-22T15:20:50;13.90;99.90
2002;DHT22;1003;48.002;7.788;2023-02-22T15:23:22;13.90;99.90
2002;DHT22;1003;48.002;7.788;2023-02-22T15:25:55;13.70;99.90
2002;DHT22;1003;48.002;7.788;2023-02-22T15:28:26;13.50;99.90
2002;DHT22;1003;48.002;7.788;2023-02-22T15:31:16;13.50;99.90
2002;DHT22;1003;48.002;7.788;2023-02-22T15:33:48;13.50;99.90
2002;DHT22;1003;48.002;7.788;2023-02-22T15:36:18;13.50;99.90
2002;DHT22;1003;48.002;7.788;2023-02-22T15:38:48;13.30;99.90
2002;DHT22;1003;48.002;7.788;2023-02-22T15:41:22;13.30;99.90
2002;DHT22;1003;48.002;7.788;2023-02-22T15:43:59;13.40;99.90
2002;DHT22;1003;48.002;7.788;2023-02-22T15:46:29;13.30;99.90
2002;DHT22;1003;48.002;7.788;2023-02-22T15:49:15;13.10;99.90
2002;DHT22;1003;48.002;7.788;2023-02-22T15:51:46;13.10;99.90
2002;DHT22;1003;48.002;7.788;2023-02-22T15:54:26;13.00;99.90
2002;DHT22;1003;48.002;7.788;2023-02-22T15:56:53;12.90;99.90
2002;DHT22;1003;48.002;7.788;2023-02-22T15:59:23;12.80;99.90
2002;DHT22;1003;48.002;7.788;2023-02-22T16:01:57;12.70;99.90
2002;DHT22;1003;48.002;7.788;2023-02-22T16:04:26;12.60;99.90
2002;DHT22;1003;48.002;7.788;2023-02-22T16:07:03;12.70;99.90
2002;DHT22;1003;48.002;7.788;2023-02-22T16:09:45;12.50;99.90
2002;DHT22;1003;48.002;7.788;2023-02-22T16:12:24;12.50;99.90
2002;DHT22;1003;48.002;7.788;2023-02-22T16:14:54;12.50;99.90
2002;DHT22;1003;48.002;7.788;2023-02-22T16:17:29;12.40;99.90
2002;DHT22;1003;48.002;7.788;2023-02-22T16:20:27;12.30;99.90
2002;DHT22;1003;48.002;7.788;2023-02-22T16:22:59;12.20;99.90
2002;DHT22;1003;48.002;7.788;2023-02-22T16:25:31;12.20;99.90
2002;DHT22;1003;48.002;7.788;2023-02-22T16:28:01;12.10;99.90
2002;DHT22;1003;48.002;7.788;2023-02-22T16:30:55;12.10;99.90
2002;DHT22;1003;48.002;7.788;2023-02-22T16:33:22;12.10;99.90
2002;DHT22;1003;48.002;7.788;2023-02-22T16:35:54;12.00;99.90
2002;DHT22;1003;48.002;7.788;2023-02-22T16:38:22;11.90;99.90
2002;DHT22;1003;48.002;7.788;2023-02-22T16:40:53;11.90;99.90
2002;DHT22;1003;48.002;7.788;2023-02-22T16:43:24;11.80;99.90
2002;DHT22;1003;48.002;7.788;2023-02-22T16:45:55;11.80;99.90
2002;DHT22;1003;48.002;7.788;2023-02-22T16:48:24;11.80;99.90
2002;DHT22;1003;48.002;7.788;2023-02-22T16:50:53;11.90;99.90
2002;DHT22;1003;48.002;7.788;2023-02-22T16:53:23;11.80;99.90
2002;DHT22;1003;48.002;7.788;2023-02-22T16:56:01;11.80;99.90
2002;DHT22;1003;48.002;7.788;2023-02-22T16:58:32;11.70;99.90
2002;DHT22;1003;48.002;7.788;2023-02-22T17:01:03;11.60;99.90